Time;durP1;ratioP1;P1;durP2;ratioP2;P2;SDS_P1;SDS_P2;PMS_P1;PMS_P2;Temp;Humidity;BMP_temperature;BMP_pressure;BME280_temperature;BME280_humidity;BME280_pressure;Samples;Min_cycle;Max_cycle;Signal;HPM_P1;HPM_P2
2022/07/29 00:01:21;;;;;;;1.80;1.38;;;12.90;99.90;;;;;;5008427;28;20100;-62
2022/07/29 00:03:47;;;;;;;1.38;1.27;;;12.90;99.90;;;;;;5007091;28;20030;-63
2022/07/29 00:06:13;;;;;;;2.40;1.70;;;12.80;99.90;;;;;;5009419;28;20033;-63
2022/07/29 00:08:39;;;;;;;3.22;1.60;;;12.80;99.90;;;;;;5023791;28;20083;-64
2022/07/29 00:11:04;;;;;;;2.55;1.83;;;12.80;99.90;;;;;;5012715;28;20026;-64
2022/07/29 00:13:30;;;;;;;1.73;1.10;;;12.80;99.90;;;;;;5011858;28;20025;-64
2022/07/29 00:15:56;;;;;;;1.90;1.42;;;12.80;99.90;;;;;;5012404;28;20092;-65
2022/07/29 00:18:21;;;;;;;2.55;1.40;;;12.70;99.90;;;;;;5012223;28;20481;-64
2022/07/29 00:20:47;;;;;;;3.55;1.13;;;12.80;99.90;;;;;;5012548;28;20018;-64
2022/07/29 00:23:12;;;;;;;2.13;1.20;;;12.80;99.90;;;;;;5011196;28;20040;-64
2022/07/29 00:25:38;;;;;;;4.80;1.25;;;12.80;99.90;;;;;;5012115;28;20110;-65
2022/07/29 00:28:04;;;;;;;5.38;1.88;;;12.80;99.90;;;;;;5023431;28;20532;-64
2022/07/29 00:30:29;;;;;;;2.45;1.85;;;12.80;99.90;;;;;;5012098;28;20065;-65
2022/07/29 00:32:55;;;;;;;5.88;1.48;;;12.80;99.90;;;;;;5010793;28;20022;-65
2022/07/29 00:38:05;;;;;;;3.10;1.40;;;12.80;99.90;;;;;;5011685;28;20037;-65
2022/07/29 00:40:30;;;;;;;2.17;1.13;;;12.70;99.90;;;;;;5011538;28;20025;-64
2022/07/29 00:42:56;;;;;;;3.17;1.30;;;12.80;99.90;;;;;;5010376;28;20022;-63
2022/07/29 00:45:21;;;;;;;2.40;1.77;;;12.70;99.90;;;;;;5025992;28;20053;-63
2022/07/29 00:47:47;;;;;;;2.65;1.65;;;12.70;99.90;;;;;;5010502;28;20040;-63
2022/07/29 00:50:14;;;;;;;2.00;1.27;;;12.70;99.90;;;;;;5011303;28;20029;-64
2022/07/29 00:52:41;;;;;;;2.08;1.30;;;12.60;99.90;;;;;;5010943;28;20116;-64
2022/07/29 00:55:09;;;;;;;2.05;1.08;;;12.60;99.90;;;;;;5008879;28;20400;-63
2022/07/29 00:57:35;;;;;;;4.30;1.42;;;12.60;99.90;;;;;;5007234;28;20045;-65
2022/07/29 01:00:03;;;;;;;3.92;1.90;;;12.60;99.90;;;;;;5007132;28;20481;-65
2022/07/29 01:02:29;;;;;;;1.85;1.40;;;12.60;99.90;;;;;;5008942;28;20026;-63
2022/07/29 01:04:56;;;;;;;3.38;1.75;;;12.60;99.90;;;;;;5008835;28;20026;-64
2022/07/29 01:07:24;;;;;;;8.50;1.70;;;12.60;99.90;;;;;;5009974;28;20124;-64
2022/07/29 01:09:50;;;;;;;2.65;1.50;;;12.60;99.90;;;;;;5007742;28;20034;-64
2022/07/29 01:12:23;;;;;;;3.28;1.35;;;12.60;99.90;;;;;;5026152;28;20018;-65
2022/07/29 01:14:50;;;;;;;3.80;2.03;;;12.50;99.90;;;;;;5009925;28;20037;-64
2022/07/29 01:17:37;;;;;;;2.70;1.23;;;12.50;99.90;;;;;;5010106;28;20029;-64
2022/07/29 01:20:15;;;;;;;2.60;1.60;;;12.50;99.90;;;;;;5010684;28;20145;-64
2022/07/29 01:23:03;;;;;;;2.22;1.40;;;12.40;99.90;;;;;;5010531;28;20028;-64
2022/07/29 01:25:41;;;;;;;3.42;1.65;;;12.40;99.90;;;;;;5003744;28;20030;-63
2022/07/29 01:28:37;;;;;;;3.08;1.33;;;12.40;99.90;;;;;;5010737;28;20033;-63
2022/07/29 01:31:06;;;;;;;3.05;1.60;;;12.50;99.90;;;;;;5010356;28;20133;-64
2022/07/29 01:33:49;;;;;;;2.83;1.70;;;12.40;99.90;;;;;;5004719;28;20066;-64
2022/07/29 01:36:25;;;;;;;2.33;1.80;;;12.40;99.90;;;;;;5005501;28;20553;-64
2022/07/29 01:39:09;;;;;;;5.78;1.80;;;12.40;99.90;;;;;;5009509;28;20044;-64
2022/07/29 01:41:39;;;;;;;3.15;1.60;;;12.40;99.90;;;;;;5010691;28;20041;-62
2022/07/29 01:44:31;;;;;;;1.88;1.60;;;12.40;99.90;;;;;;5010185;28;20037;-64
2022/07/29 01:47:01;;;;;;;3.72;1.42;;;12.40;99.90;;;;;;5257526;22;20125;-60
2022/07/29 01:49:33;;;;;;;4.85;1.58;;;12.40;99.90;;;;;;4989893;28;20018;-61
2022/07/29 01:52:07;;;;;;;3.35;2.35;;;12.40;99.90;;;;;;4988278;28;20127;-62
2022/07/29 01:54:38;;;;;;;2.35;1.60;;;12.40;99.90;;;;;;4990994;28;20042;-61
2022/07/29 01:57:06;;;;;;;3.92;2.17;;;12.40;99.90;;;;;;4988958;28;20022;-61
2022/07/29 01:59:34;;;;;;;4.47;1.75;;;12.30;99.90;;;;;;4990337;28;20022;-61
2022/07/29 02:02:01;;;;;;;8.38;2.05;;;12.40;99.90;;;;;;4989296;28;20168;-61
2022/07/29 02:04:29;;;;;;;1.70;1.42;;;12.40;99.90;;;;;;4991091;28;20105;-63
2022/07/29 02:07:01;;;;;;;2.35;1.67;;;12.40;99.90;;;;;;4987226;28;20037;-58
2022/07/29 02:09:28;;;;;;;4.90;2.08;;;12.30;99.90;;;;;;4991059;28;20077;-60
2022/07/29 02:11:55;;;;;;;2.70;1.70;;;12.40;99.90;;;;;;4990035;28;20096;-60
2022/07/29 02:14:23;;;;;;;2.20;1.80;;;12.40;99.90;;;;;;4986265;28;20015;-59
2022/07/29 02:16:52;;;;;;;3.95;1.90;;;12.40;99.90;;;;;;4990486;28;20030;-63
2022/07/29 02:19:20;;;;;;;3.05;1.73;;;12.40;99.90;;;;;;4983466;28;20022;-60
2022/07/29 02:21:47;;;;;;;6.45;1.95;;;12.40;99.90;;;;;;4990085;28;20488;-64
2022/07/29 02:24:15;;;;;;;2.85;1.50;;;12.50;99.90;;;;;;4990114;28;20026;-62
2022/07/29 02:26:44;;;;;;;1.70;1.60;;;12.50;99.90;;;;;;4990060;28;20018;-58
2022/07/29 02:29:12;;;;;;;4.50;1.90;;;12.50;99.90;;;;;;4989095;28;20122;-63
2022/07/29 02:31:39;;;;;;;4.38;1.85;;;12.50;99.90;;;;;;4987019;28;20029;-60
2022/07/29 02:34:08;;;;;;;1.98;1.70;;;12.50;99.90;;;;;;4988347;28;20022;-59
2022/07/29 02:36:34;;;;;;;3.33;2.05;;;12.50;99.90;;;;;;4989920;28;20037;-61
2022/07/29 02:39:01;;;;;;;5.53;2.33;;;12.50;99.90;;;;;;4989071;28;20106;-60
2022/07/29 02:41:43;;;;;;;3.83;2.00;;;12.50;99.90;;;;;;4987084;28;20058;-59
2022/07/29 02:44:21;;;;;;;3.72;1.90;;;12.60;99.90;;;;;;4989129;28;20026;-61
2022/07/29 02:47:10;;;;;;;4.85;2.55;;;12.60;99.90;;;;;;4988346;28;20034;-60
2022/07/29 02:49:43;;;;;;;4.80;2.40;;;12.60;99.90;;;;;;4988484;28;20547;-61
2022/07/29 02:52:19;;;;;;;3.72;1.88;;;12.60;99.90;;;;;;4988469;28;20038;-61
2022/07/29 02:54:55;;;;;;;4.82;1.83;;;12.50;99.90;;;;;;4989502;28;20023;-63
2022/07/29 02:57:32;;;;;;;4.88;1.73;;;12.60;99.90;;;;;;4983370;28;20030;-63
2022/07/29 03:00:05;;;;;;;2.58;1.70;;;12.50;99.90;;;;;;4987767;28;20101;-62
2022/07/29 03:02:36;;;;;;;4.07;2.15;;;12.60;99.90;;;;;;4984235;28;20026;-62
2022/07/29 03:05:03;;;;;;;3.75;2.38;;;12.60;99.90;;;;;;4989585;28;20026;-63
2022/07/29 03:07:29;;;;;;;4.35;1.88;;;12.60;99.90;;;;;;4987524;28;20034;-63
2022/07/29 03:09:56;;;;;;;4.60;2.05;;;12.60;99.90;;;;;;4988668;28;20096;-62
2022/07/29 03:12:23;;;;;;;5.40;2.50;;;12.60;99.90;;;;;;4987432;28;20030;-62
2022/07/29 03:14:49;;;;;;;3.80;2.17;;;12.60;99.90;;;;;;4988742;28;20026;-63
2022/07/29 03:17:15;;;;;;;3.75;1.75;;;12.60;99.90;;;;;;4980658;28;20109;-62
2022/07/29 03:19:41;;;;;;;6.80;1.80;;;12.60;99.90;;;;;;4988490;28;20110;-60
2022/07/29 03:22:07;;;;;;;4.15;2.30;;;12.60;99.90;;;;;;4988544;28;20046;-62
2022/07/29 03:24:35;;;;;;;4.32;2.58;;;12.60;99.90;;;;;;4987525;28;20038;-59
2022/07/29 03:27:01;;;;;;;3.47;2.00;;;12.60;99.90;;;;;;4989425;28;20034;-59
2022/07/29 03:29:27;;;;;;;4.10;2.50;;;12.60;99.90;;;;;;4988317;28;20042;-63
2022/07/29 03:31:53;;;;;;;2.58;2.15;;;12.50;99.90;;;;;;4988097;28;20030;-62
2022/07/29 03:34:19;;;;;;;2.78;2.03;;;12.50;99.90;;;;;;4987056;28;20484;-61
2022/07/29 03:36:45;;;;;;;3.78;2.22;;;12.50;99.90;;;;;;4989008;28;20064;-62
2022/07/29 03:39:13;;;;;;;3.55;2.03;;;12.50;99.90;;;;;;4988763;28;20114;-62
2022/07/29 03:41:42;;;;;;;6.22;2.28;;;12.50;99.90;;;;;;4991177;28;20018;-62
2022/07/29 03:44:08;;;;;;;6.13;1.88;;;12.50;99.90;;;;;;4991702;28;20700;-60
2022/07/29 03:46:37;;;;;;;4.30;1.98;;;12.50;99.90;;;;;;4991634;28;20034;-62
2022/07/29 03:49:04;;;;;;;4.18;2.03;;;12.50;99.90;;;;;;4992466;28;20493;-63
2022/07/29 03:51:30;;;;;;;3.17;1.75;;;12.50;99.90;;;;;;4991978;28;20412;-61
2022/07/29 03:53:57;;;;;;;3.92;2.58;;;12.50;99.90;;;;;;4989603;28;20471;-62
2022/07/29 03:56:24;;;;;;;5.53;2.50;;;12.50;99.90;;;;;;4992593;28;20105;-62
2022/07/29 03:58:53;;;;;;;4.63;2.08;;;12.50;99.90;;;;;;4992133;28;20101;-60
2022/07/29 04:01:20;;;;;;;6.35;2.33;;;12.50;99.90;;;;;;4992174;28;20685;-63
2022/07/29 04:03:46;;;;;;;3.03;2.13;;;12.50;99.90;;;;;;4992553;28;20665;-63
2022/07/29 04:06:12;;;;;;;4.90;2.47;;;12.50;99.90;;;;;;4991662;28;20088;-62
2022/07/29 04:08:38;;;;;;;5.55;2.20;;;12.50;99.90;;;;;;4990608;28;20097;-62
2022/07/29 04:11:05;;;;;;;3.00;2.28;;;12.50;99.90;;;;;;4991978;28;20046;-60
2022/07/29 04:13:32;;;;;;;2.95;1.85;;;12.50;99.90;;;;;;4989687;28;20046;-60
2022/07/29 04:15:57;;;;;;;6.45;2.47;;;12.60;99.90;;;;;;4984620;28;20370;-59
2022/07/29 04:18:23;;;;;;;4.07;2.33;;;12.50;99.90;;;;;;4991806;28;20022;-62
2022/07/29 04:20:49;;;;;;;8.00;2.47;;;12.50;99.90;;;;;;4992131;28;20023;-63
2022/07/29 04:23:14;;;;;;;4.85;2.72;;;12.50;99.90;;;;;;4991421;28;20101;-60
2022/07/29 04:25:42;;;;;;;4.47;2.15;;;12.50;99.90;;;;;;4991343;28;20042;-62
2022/07/29 04:28:08;;;;;;;3.80;1.80;;;12.50;99.90;;;;;;4990490;28;20408;-62
2022/07/29 04:30:35;;;;;;;5.07;2.30;;;12.50;99.90;;;;;;4991795;28;20508;-62
2022/07/29 04:33:03;;;;;;;3.55;2.25;;;12.50;99.90;;;;;;4989199;28;20034;-61
2022/07/29 04:35:30;;;;;;;3.70;2.03;;;12.60;99.90;;;;;;4990657;28;20094;-61
2022/07/29 04:37:56;;;;;;;6.25;2.25;;;12.60;99.90;;;;;;4992063;28;20014;-63
2022/07/29 04:40:21;;;;;;;4.75;2.25;;;12.60;99.90;;;;;;4991188;28;20409;-62
2022/07/29 04:42:47;;;;;;;2.85;1.92;;;12.60;99.90;;;;;;4990732;28;20030;-60
2022/07/29 04:45:13;;;;;;;3.28;2.13;;;12.70;99.90;;;;;;4990631;28;20073;-60
2022/07/29 04:47:39;;;;;;;5.50;2.17;;;12.70;99.90;;;;;;4991414;28;20088;-59
2022/07/29 04:50:06;;;;;;;5.88;1.83;;;12.70;99.90;;;;;;4988056;28;20410;-59
2022/07/29 04:52:32;;;;;;;3.08;2.10;;;12.70;99.90;;;;;;4990752;28;20037;-62
2022/07/29 04:54:58;;;;;;;3.70;2.72;;;12.80;99.90;;;;;;4990776;28;20061;-61
2022/07/29 04:57:23;;;;;;;5.38;2.22;;;12.80;99.90;;;;;;4990473;28;20022;-63
2022/07/29 04:59:49;;;;;;;2.50;1.85;;;12.80;99.90;;;;;;4990883;28;20065;-62
2022/07/29 05:02:14;;;;;;;6.63;1.98;;;12.80;99.90;;;;;;4990443;28;20089;-63
2022/07/29 05:04:40;;;;;;;8.43;2.70;;;12.80;99.90;;;;;;4991358;28;20026;-59
2022/07/29 05:07:05;;;;;;;2.95;1.85;;;12.80;99.90;;;;;;4989720;28;20736;-60
2022/07/29 05:09:32;;;;;;;3.88;2.13;;;12.80;99.90;;;;;;4990747;28;20053;-60
2022/07/29 05:11:57;;;;;;;4.70;2.38;;;12.80;99.90;;;;;;4990328;28;20064;-61
2022/07/29 05:14:23;;;;;;;3.47;2.28;;;12.80;99.90;;;;;;4990926;28;20045;-62
2022/07/29 05:16:50;;;;;;;5.18;2.28;;;12.90;99.90;;;;;;4990561;28;20033;-62
2022/07/29 05:19:16;;;;;;;2.08;1.83;;;12.90;99.90;;;;;;4989696;28;20034;-60
2022/07/29 05:21:42;;;;;;;3.72;2.00;;;12.90;99.90;;;;;;4989869;28;20023;-61
2022/07/29 05:24:08;;;;;;;6.38;2.45;;;12.90;99.90;;;;;;4990761;28;20414;-63
2022/07/29 05:26:33;;;;;;;3.20;2.10;;;12.90;99.90;;;;;;4990313;28;20080;-63
2022/07/29 05:28:59;;;;;;;4.68;2.17;;;13.00;99.90;;;;;;4990234;28;20030;-63
2022/07/29 05:31:24;;;;;;;6.88;2.60;;;13.00;99.90;;;;;;4972424;28;20081;-59
2022/07/29 05:33:56;;;;;;;3.83;2.75;;;13.00;99.90;;;;;;4989816;28;20374;-58
2022/07/29 05:36:22;;;;;;;3.80;2.38;;;13.10;99.90;;;;;;4985455;28;20144;-62
2022/07/29 05:38:47;;;;;;;2.45;2.17;;;13.10;99.90;;;;;;4988431;28;20041;-61
2022/07/29 05:41:13;;;;;;;3.63;2.20;;;13.10;99.90;;;;;;4989730;28;20071;-63
2022/07/29 05:43:38;;;;;;;3.15;2.35;;;13.10;99.90;;;;;;4990222;28;20092;-61
2022/07/29 05:46:04;;;;;;;3.47;2.42;;;13.20;99.90;;;;;;4990582;28;20062;-62
2022/07/29 05:48:29;;;;;;;5.10;2.45;;;13.20;99.90;;;;;;4964097;28;20034;-61
2022/07/29 05:50:55;;;;;;;2.80;2.35;;;13.30;99.90;;;;;;4990138;28;20447;-60
2022/07/29 05:53:21;;;;;;;4.40;2.45;;;13.40;99.90;;;;;;4988336;28;20557;-63
2022/07/29 05:55:47;;;;;;;3.28;2.00;;;13.40;99.90;;;;;;4988920;28;20022;-60
2022/07/29 05:58:13;;;;;;;7.38;2.47;;;13.50;99.90;;;;;;4990346;28;21020;-64
2022/07/29 06:00:39;;;;;;;4.28;2.20;;;13.50;99.90;;;;;;4990281;28;20083;-62
2022/07/29 06:03:05;;;;;;;7.03;2.90;;;13.60;99.90;;;;;;4988908;28;20041;-64
2022/07/29 06:05:30;;;;;;;4.47;2.92;;;13.70;99.90;;;;;;4989778;28;20030;-63
2022/07/29 06:07:56;;;;;;;6.13;1.90;;;13.80;99.90;;;;;;4990273;28;20046;-62
2022/07/29 06:10:22;;;;;;;6.70;2.22;;;13.80;99.90;;;;;;4989995;28;20033;-62
2022/07/29 06:12:47;;;;;;;2.97;2.08;;;13.90;99.90;;;;;;4987868;28;20038;-61
2022/07/29 06:15:13;;;;;;;2.85;2.20;;;14.00;99.90;;;;;;4988630;28;20488;-63
2022/07/29 06:17:38;;;;;;;2.53;1.75;;;14.00;99.90;;;;;;4989897;28;20029;-62
2022/07/29 06:20:04;;;;;;;2.58;1.85;;;14.10;99.90;;;;;;4990054;28;20030;-63
2022/07/29 06:22:30;;;;;;;4.10;2.03;;;14.10;99.90;;;;;;4989182;28;20158;-64
2022/07/29 06:24:56;;;;;;;2.55;1.75;;;14.20;99.90;;;;;;4988601;28;20103;-61
2022/07/29 06:27:21;;;;;;;3.90;2.47;;;14.40;99.90;;;;;;4990337;28;20033;-63
2022/07/29 06:29:47;;;;;;;4.32;2.03;;;14.50;99.90;;;;;;4989902;28;20358;-63
2022/07/29 06:32:13;;;;;;;3.22;2.20;;;14.50;99.90;;;;;;4989064;28;20023;-63
2022/07/29 06:34:38;;;;;;;7.25;2.42;;;14.70;99.90;;;;;;4988009;28;20102;-64
2022/07/29 06:37:08;;;;;;;5.75;2.30;;;14.70;99.90;;;;;;4989388;28;20046;-63
2022/07/29 06:39:37;;;;;;;5.95;2.13;;;14.80;99.90;;;;;;4988882;28;20026;-62
2022/07/29 06:42:06;;;;;;;2.70;2.28;;;15.00;99.90;;;;;;4985941;28;20041;-62
2022/07/29 06:44:35;;;;;;;7.00;2.20;;;15.00;99.90;;;;;;4987795;28;20018;-61
2022/07/29 06:47:04;;;;;;;3.63;1.88;;;15.10;99.90;;;;;;4988449;28;20033;-60
2022/07/29 06:49:29;;;;;;;4.38;2.30;;;15.20;99.90;;;;;;4986019;28;20057;-61
2022/07/29 06:51:55;;;;;;;4.53;2.35;;;15.40;99.90;;;;;;4988294;28;20050;-60
2022/07/29 06:54:21;;;;;;;3.10;1.73;;;15.50;99.90;;;;;;4987630;28;20025;-62
2022/07/29 06:56:48;;;;;;;5.50;2.13;;;15.50;99.90;;;;;;4989530;28;20030;-60
2022/07/29 06:59:13;;;;;;;2.75;1.80;;;15.70;99.90;;;;;;4988785;28;20558;-63
2022/07/29 07:01:41;;;;;;;2.75;2.05;;;15.80;99.90;;;;;;4988230;28;20034;-62
2022/07/29 07:04:08;;;;;;;4.32;2.10;;;15.90;99.90;;;;;;4987187;28;20034;-60
2022/07/29 07:06:34;;;;;;;5.63;2.25;;;16.10;99.90;;;;;;4989718;28;20053;-62
2022/07/29 07:09:00;;;;;;;6.30;2.00;;;16.10;99.90;;;;;;4989185;28;20084;-58
2022/07/29 07:11:25;;;;;;;3.75;2.25;;;16.20;99.90;;;;;;4988469;28;20022;-63
2022/07/29 07:13:51;;;;;;;5.47;2.63;;;16.30;99.90;;;;;;4988745;28;20034;-62
2022/07/29 07:16:16;;;;;;;4.55;2.08;;;16.40;99.90;;;;;;4989240;28;20019;-63
2022/07/29 07:18:44;;;;;;;4.68;2.60;;;16.50;99.90;;;;;;4988610;28;20026;-62
2022/07/29 07:21:10;;;;;;;4.90;1.95;;;16.60;99.90;;;;;;4987804;28;20043;-63
2022/07/29 07:23:36;;;;;;;3.40;1.70;;;16.70;99.90;;;;;;4987560;28;20030;-64
2022/07/29 07:26:02;;;;;;;2.17;1.80;;;16.90;99.90;;;;;;4987456;28;20130;-64
2022/07/29 07:28:28;;;;;;;2.80;1.55;;;17.00;99.90;;;;;;4987213;28;20109;-63
2022/07/29 07:30:54;;;;;;;3.33;1.70;;;17.20;99.90;;;;;;4988984;28;20588;-62
2022/07/29 07:33:19;;;;;;;2.53;1.83;;;17.40;99.90;;;;;;4986619;28;20026;-57
2022/07/29 07:35:45;;;;;;;3.10;2.47;;;17.70;99.90;;;;;;4989123;28;20025;-63
2022/07/29 07:38:10;;;;;;;7.63;2.30;;;17.90;99.90;;;;;;4988331;28;20384;-61
2022/07/29 07:40:36;;;;;;;2.95;2.03;;;18.10;99.90;;;;;;4987893;28;20023;-63
2022/07/29 07:43:02;;;;;;;4.10;2.40;;;18.30;99.90;;;;;;4987863;28;20030;-62
2022/07/29 07:45:28;;;;;;;4.97;2.05;;;18.50;99.90;;;;;;4987874;28;20034;-60
2022/07/29 07:47:53;;;;;;;1.85;1.75;;;18.70;99.90;;;;;;4988410;28;20049;-62
2022/07/29 07:50:19;;;;;;;5.40;2.13;;;18.80;99.90;;;;;;4989267;28;20440;-60
2022/07/29 07:52:57;;;;;;;3.00;1.98;;;19.00;99.90;;;;;;4987520;28;20153;-62
2022/07/29 07:55:23;;;;;;;4.43;1.83;;;19.20;99.90;;;;;;4985299;28;20018;-63
2022/07/29 07:57:49;;;;;;;3.45;1.98;;;19.40;99.90;;;;;;4987039;28;20018;-62
2022/07/29 08:00:16;;;;;;;3.00;1.85;;;19.50;99.90;;;;;;4988725;28;20069;-62
2022/07/29 08:02:42;;;;;;;3.13;1.92;;;19.60;99.90;;;;;;4987862;28;20165;-60
2022/07/29 08:05:08;;;;;;;5.47;1.95;;;19.80;99.90;;;;;;4988733;28;20037;-64
2022/07/29 08:07:34;;;;;;;3.15;2.03;;;19.90;99.90;;;;;;4987286;28;20038;-64
2022/07/29 08:10:00;;;;;;;6.20;2.08;;;20.00;99.90;;;;;;4987594;28;20182;-63
2022/07/29 08:12:25;;;;;;;3.83;2.00;;;20.10;99.90;;;;;;4987514;28;20027;-64
2022/07/29 08:14:51;;;;;;;2.97;2.00;;;20.20;99.90;;;;;;4988423;28;20034;-62
2022/07/29 08:17:16;;;;;;;3.35;2.00;;;20.20;99.90;;;;;;4988500;28;20100;-60
2022/07/29 08:19:42;;;;;;;1.95;1.67;;;20.20;99.90;;;;;;4987201;28;20046;-63
2022/07/29 08:22:07;;;;;;;3.28;1.65;;;20.20;99.90;;;;;;4986258;28;20130;-61
2022/07/29 08:24:42;;;;;;;6.75;2.75;;;20.30;99.90;;;;;;4988086;28;20030;-61
2022/07/29 08:27:08;;;;;;;6.68;2.53;;;20.40;99.90;;;;;;4989246;28;20065;-63
2022/07/29 08:29:34;;;;;;;4.82;2.40;;;20.40;99.90;;;;;;4990956;28;20038;-62
2022/07/29 08:32:00;;;;;;;5.43;1.70;;;20.50;99.90;;;;;;4991270;28;20029;-58
2022/07/29 08:34:25;;;;;;;4.25;1.65;;;20.50;99.90;;;;;;4989084;28;20026;-58
2022/07/29 08:36:51;;;;;;;1.85;1.60;;;20.60;99.90;;;;;;4991395;28;20030;-62
2022/07/29 08:39:17;;;;;;;3.83;1.80;;;20.60;99.90;;;;;;4991748;28;20126;-63
2022/07/29 08:41:42;;;;;;;2.20;1.35;;;20.70;99.90;;;;;;4989005;28;20030;-62
2022/07/29 08:44:09;;;;;;;5.07;2.03;;;20.80;99.90;;;;;;4990473;28;20128;-62
2022/07/29 08:46:38;;;;;;;2.15;1.63;;;20.90;99.70;;;;;;4990208;28;20034;-62
2022/07/29 08:49:04;;;;;;;2.17;1.90;;;20.90;99.70;;;;;;4988505;28;20022;-61
2022/07/29 08:51:33;;;;;;;2.78;1.88;;;21.00;99.80;;;;;;4984937;28;20041;-62
2022/07/29 08:53:59;;;;;;;3.83;1.88;;;21.10;99.80;;;;;;4989266;28;20137;-62
2022/07/29 08:56:24;;;;;;;5.65;2.47;;;21.20;99.40;;;;;;4991983;28;20105;-59
2022/07/29 08:58:50;;;;;;;5.03;2.08;;;21.30;99.90;;;;;;4991509;28;20064;-61
2022/07/29 09:01:25;;;;;;;4.80;2.00;;;21.40;99.90;;;;;;4989957;28;20118;-61
2022/07/29 09:03:55;;;;;;;4.43;1.98;;;21.40;99.10;;;;;;4990875;28;20465;-62
2022/07/29 09:06:22;;;;;;;2.40;1.73;;;21.60;98.80;;;;;;4991800;28;20026;-62
2022/07/29 09:08:48;;;;;;;2.45;1.77;;;21.80;98.70;;;;;;4990840;28;20080;-55
2022/07/29 09:11:14;;;;;;;2.42;1.88;;;22.10;98.50;;;;;;4989985;28;20038;-61
2022/07/29 09:13:40;;;;;;;2.65;1.63;;;22.40;97.90;;;;;;4990140;28;20147;-61
2022/07/29 09:16:06;;;;;;;3.78;2.25;;;22.60;97.60;;;;;;4990954;28;20125;-63
2022/07/29 09:18:40;;;;;;;2.85;2.03;;;22.80;97.60;;;;;;4991240;28;20065;-61
2022/07/29 09:24:12;;;;;;;5.10;1.75;;;23.00;96.40;;;;;;4990923;28;20407;-61
2022/07/29 09:26:43;;;;;;;4.38;1.80;;;23.20;96.00;;;;;;4991120;28;20101;-62
2022/07/29 09:29:17;;;;;;;2.83;1.42;;;23.40;95.60;;;;;;4990711;28;20034;-62
2022/07/29 09:31:50;;;;;;;3.45;1.50;;;23.60;95.10;;;;;;4990353;28;20104;-62
2022/07/29 09:34:21;;;;;;;5.18;2.15;;;23.60;94.30;;;;;;4989541;28;20034;-61
2022/07/29 09:36:49;;;;;;;4.43;1.88;;;23.80;94.00;;;;;;4990575;28;20040;-62
2022/07/29 09:39:26;;;;;;;2.75;1.60;;;23.70;94.10;;;;;;4982297;28;20019;-64
2022/07/29 09:41:55;;;;;;;3.17;1.70;;;23.60;93.20;;;;;;4989585;28;20024;-62
2022/07/29 09:44:22;;;;;;;3.90;1.70;;;23.50;94.50;;;;;;4988512;28;20026;-62
2022/07/29 09:47:05;;;;;;;2.30;1.55;;;23.70;93.80;;;;;;4990112;28;20077;-64
2022/07/29 09:49:31;;;;;;;5.32;1.80;;;23.90;91.90;;;;;;4984995;28;20018;-61
2022/07/29 09:52:06;;;;;;;6.25;1.58;;;23.90;92.20;;;;;;4989285;28;20138;-62
2022/07/29 09:54:36;;;;;;;4.25;1.95;;;24.00;92.20;;;;;;4988901;28;20029;-62
2022/07/29 09:57:04;;;;;;;4.10;1.88;;;24.10;92.20;;;;;;4987809;28;20034;-63
2022/07/29 09:59:30;;;;;;;7.07;2.00;;;24.10;90.90;;;;;;4990333;28;20425;-63
2022/07/29 10:01:56;;;;;;;3.65;1.85;;;23.90;91.70;;;;;;4980399;28;20023;-59
2022/07/29 10:04:22;;;;;;;1.98;1.38;;;23.80;91.50;;;;;;4990477;28;20026;-62
2022/07/29 10:06:58;;;;;;;5.78;1.67;;;23.70;90.80;;;;;;4988801;28;20030;-61
2022/07/29 10:09:24;;;;;;;4.13;1.65;;;23.70;91.40;;;;;;4982259;28;20030;-59
2022/07/29 10:12:06;;;;;;;1.73;1.50;;;23.70;92.40;;;;;;4988975;28;20019;-62
2022/07/29 10:14:33;;;;;;;4.10;2.22;;;23.80;91.90;;;;;;4987049;28;20026;-61
2022/07/29 10:17:03;;;;;;;2.67;1.60;;;23.90;92.70;;;;;;4988583;28;20548;-60
2022/07/29 10:19:33;;;;;;;2.65;1.27;;;24.00;91.00;;;;;;4990035;28;20405;-61
2022/07/29 10:21:59;;;;;;;2.33;1.25;;;24.10;90.80;;;;;;4988850;28;20388;-62
2022/07/29 10:24:29;;;;;;;2.10;1.40;;;24.20;90.50;;;;;;4988058;28;20027;-58
2022/07/29 10:26:56;;;;;;;3.33;1.20;;;24.20;90.40;;;;;;4989008;28;20027;-58
2022/07/29 10:29:23;;;;;;;2.45;1.33;;;24.10;88.10;;;;;;4989401;28;20018;-62
2022/07/29 10:31:57;;;;;;;3.20;1.23;;;24.00;88.90;;;;;;4987160;28;20030;-61
2022/07/29 10:35:00;;;;;;;2.92;1.30;;;24.00;87.50;;;;;;4983839;28;20038;-61
2022/07/29 10:37:58;;;;;;;3.92;1.10;;;24.00;88.30;;;;;;4986794;28;20023;-58
2022/07/29 10:43:43;;;;;;;3.38;1.20;;;24.20;85.80;;;;;;4989311;28;20061;-60
2022/07/29 10:46:11;;;;;;;4.82;1.55;;;24.30;86.20;;;;;;4988996;28;20030;-62
2022/07/29 10:49:09;;;;;;;4.57;1.30;;;24.30;86.90;;;;;;4988730;28;20021;-62
2022/07/29 10:51:51;;;;;;;1.83;0.93;;;24.20;84.00;;;;;;4988300;28;20113;-62
2022/07/29 10:54:18;;;;;;;4.00;1.60;;;24.20;85.90;;;;;;4983219;28;20023;-62
2022/07/29 10:56:44;;;;;;;3.03;1.40;;;24.10;85.10;;;;;;4982208;28;20034;-60
2022/07/29 10:59:21;;;;;;;2.97;1.17;;;24.10;86.60;;;;;;4988884;28;20037;-62
2022/07/29 11:01:49;;;;;;;1.95;0.98;;;24.20;86.60;;;;;;4986518;28;20106;-62
2022/07/29 11:04:15;;;;;;;1.40;1.08;;;24.20;85.90;;;;;;4989697;28;20030;-61
2022/07/29 11:07:02;;;;;;;4.20;1.02;;;24.30;86.10;;;;;;4989047;28;20485;-59
2022/07/29 11:09:30;;;;;;;1.77;1.17;;;24.20;84.80;;;;;;4983332;28;20054;-62
2022/07/29 11:11:56;;;;;;;1.70;1.02;;;24.20;83.30;;;;;;4987670;28;20088;-62
2022/07/29 11:14:56;;;;;;;4.75;1.35;;;24.20;83.80;;;;;;4989010;28;20416;-62
2022/07/29 11:17:22;;;;;;;2.10;1.27;;;24.20;83.20;;;;;;4982508;28;20022;-57
2022/07/29 11:19:47;;;;;;;5.95;1.10;;;24.20;85.70;;;;;;4986229;28;20026;-61
2022/07/29 11:22:35;;;;;;;3.35;1.38;;;24.20;85.40;;;;;;4988099;28;20027;-61
2022/07/29 11:25:16;;;;;;;2.53;1.45;;;24.20;84.10;;;;;;4988420;28;20084;-62
2022/07/29 11:27:42;;;;;;;4.55;1.50;;;24.20;85.60;;;;;;4987270;28;20026;-61
2022/07/29 11:30:09;;;;;;;4.00;1.40;;;24.30;86.30;;;;;;4988935;28;20461;-61
2022/07/29 11:32:43;;;;;;;2.67;1.20;;;24.30;85.20;;;;;;4989007;28;20030;-62
2022/07/29 11:35:23;;;;;;;2.75;1.60;;;24.30;84.40;;;;;;4989500;28;20038;-62
2022/07/29 11:38:23;;;;;;;1.30;1.20;;;24.30;85.10;;;;;;4989316;28;20026;-62
2022/07/29 11:41:24;;;;;;;2.50;1.40;;;24.30;85.00;;;;;;4985414;28;20018;-61
2022/07/29 11:43:59;;;;;;;2.42;1.13;;;24.40;85.00;;;;;;4985592;28;20030;-61
2022/07/29 11:46:48;;;;;;;1.92;1.45;;;24.40;85.30;;;;;;4987876;28;20121;-62
2022/07/29 11:49:20;;;;;;;1.25;1.15;;;24.50;84.70;;;;;;4980591;28;20035;-59
2022/07/29 11:51:54;;;;;;;1.60;1.50;;;24.60;86.10;;;;;;4985779;28;20117;-62
2022/07/29 11:54:26;;;;;;;7.47;1.20;;;24.70;86.80;;;;;;4981638;28;20539;-61
2022/07/29 11:56:52;;;;;;;3.60;1.27;;;24.80;85.40;;;;;;4988692;28;20019;-61
2022/07/29 11:59:19;;;;;;;1.40;0.90;;;25.00;87.10;;;;;;4987565;28;20029;-63
2022/07/29 12:01:55;;;;;;;3.58;1.38;;;25.20;82.60;;;;;;4987361;28;20072;-60
2022/07/29 12:04:23;;;;;;;2.35;1.00;;;25.30;82.90;;;;;;4985301;28;20022;-59
2022/07/29 12:06:52;;;;;;;3.55;1.13;;;25.40;81.70;;;;;;4992944;28;20026;-64
2022/07/29 12:09:19;;;;;;;3.45;1.30;;;25.40;80.20;;;;;;4985250;28;20066;-62
2022/07/29 12:11:46;;;;;;;5.25;1.52;;;25.30;80.80;;;;;;4991489;28;20444;-62
2022/07/29 12:14:31;;;;;;;1.80;1.48;;;25.40;81.50;;;;;;4992198;28;20018;-61
2022/07/29 12:16:59;;;;;;;3.38;1.30;;;25.50;81.60;;;;;;4991265;28;20500;-61
2022/07/29 12:19:25;;;;;;;1.90;1.27;;;25.70;82.80;;;;;;4992526;28;20084;-62
2022/07/29 12:21:56;;;;;;;2.42;1.40;;;25.80;81.50;;;;;;4991824;28;20026;-58
2022/07/29 12:24:22;;;;;;;3.25;1.60;;;25.70;81.60;;;;;;4991390;28;20030;-60
2022/07/29 12:26:52;;;;;;;3.25;1.67;;;25.60;82.60;;;;;;4992135;28;20023;-61
2022/07/29 12:29:18;;;;;;;3.72;1.60;;;25.60;83.20;;;;;;4985692;28;20053;-60
2022/07/29 12:31:46;;;;;;;3.33;1.65;;;25.60;84.20;;;;;;4991059;28;20033;-61
2022/07/29 12:34:13;;;;;;;1.75;1.50;;;25.50;83.40;;;;;;4992412;28;20695;-54
2022/07/29 12:36:38;;;;;;;1.90;1.63;;;25.30;84.00;;;;;;4990437;28;20101;-60
2022/07/29 12:39:04;;;;;;;3.33;2.28;;;25.20;84.80;;;;;;4991900;28;20193;-62
2022/07/29 12:41:30;;;;;;;2.28;1.63;;;25.20;84.10;;;;;;4991040;28;20142;-63
2022/07/29 12:43:56;;;;;;;3.45;1.70;;;25.00;84.00;;;;;;4992268;28;20034;-63
2022/07/29 12:46:22;;;;;;;2.92;1.30;;;25.10;84.00;;;;;;4991685;28;20034;-62
2022/07/29 12:48:56;;;;;;;3.38;1.58;;;25.00;84.20;;;;;;4989564;28;20026;-58
2022/07/29 12:51:31;;;;;;;2.55;1.60;;;25.00;85.00;;;;;;4984244;28;20041;-61
2022/07/29 12:54:22;;;;;;;2.20;1.73;;;25.10;85.40;;;;;;4989364;28;20029;-62
2022/07/29 12:56:59;;;;;;;2.35;1.60;;;25.20;85.70;;;;;;4989711;28;20503;-63
2022/07/29 12:59:24;;;;;;;3.72;2.33;;;25.30;84.60;;;;;;5000371;28;20058;-62
2022/07/29 13:01:51;;;;;;;2.80;1.60;;;25.40;85.60;;;;;;4990315;28;20057;-60
2022/07/29 13:04:28;;;;;;;3.55;1.50;;;25.50;84.00;;;;;;4991205;28;20061;-60
2022/07/29 13:07:06;;;;;;;2.15;1.40;;;25.50;85.20;;;;;;4991194;28;20030;-62